Time;durP1;ratioP1;P1;durP2;ratioP2;P2;SDS_P1;SDS_P2;PMS_P1;PMS_P2;Temp;Humidity;BMP_temperature;BMP_pressure;BME280_temperature;BME280_humidity;BME280_pressure;Samples;Min_cycle;Max_cycle;Signal;HPM_P1;HPM_P2
2023/10/01 00:02:18;;;;;;;18.20;7.53;;;;;;;15.96;66.89;101558.97;4940703;28;20212;-74
2023/10/01 00:04:50;;;;;;;14.90;7.07;;;;;;;15.95;67.21;101559.97;4947238;28;20486;-74
2023/10/01 00:07:29;;;;;;;17.73;8.27;;;;;;;15.92;67.37;101562.13;4956702;28;20195;-74
2023/10/01 00:10:01;;;;;;;14.57;6.93;;;;;;;15.91;66.98;101568.47;4959744;28;20214;-73
2023/10/01 00:12:56;;;;;;;18.90;7.47;;;;;;;15.91;67.05;101565.78;4953461;28;20551;-73
2023/10/01 00:15:27;;;;;;;13.23;7.27;;;;;;;15.86;66.96;101566.25;4955131;28;20208;-73
2023/10/01 00:17:57;;;;;;;15.93;8.27;;;;;;;15.87;67.09;101564.41;4955228;28;20206;-73
2023/10/01 00:20:29;;;;;;;17.17;7.53;;;;;;;15.89;67.31;101573.13;4952405;28;20242;-73
2023/10/01 00:23:09;;;;;;;21.43;7.87;;;;;;;15.85;67.22;101564.56;4955238;28;20713;-76
2023/10/01 00:25:53;;;;;;;16.20;7.67;;;;;;;15.83;67.45;101571.09;4954529;28;20230;-73
2023/10/01 00:28:25;;;;;;;17.20;7.90;;;;;;;15.81;67.18;101568.56;4959610;28;20230;-74
2023/10/01 00:30:58;;;;;;;17.50;7.40;;;;;;;15.83;67.17;101566.56;4954137;28;20198;-73
2023/10/01 00:33:30;;;;;;;13.53;7.20;;;;;;;15.79;66.89;101559.84;4952024;28;20480;-73
2023/10/01 00:36:00;;;;;;;14.27;7.43;;;;;;;15.77;67.31;101562.66;4950328;28;20239;-74
2023/10/01 00:38:45;;;;;;;16.63;7.57;;;;;;;15.64;67.63;101564.06;4944863;29;20207;-73
2023/10/01 00:41:19;;;;;;;15.33;7.13;;;;;;;15.56;68.28;101558.66;4949953;28;20206;-73
2023/10/01 00:43:48;;;;;;;12.93;6.40;;;;;;;15.55;68.18;101563.16;4946376;28;20200;-73
2023/10/01 00:46:37;;;;;;;15.60;6.70;;;;;;;15.57;67.93;101565.69;4949742;28;20215;-73
2023/10/01 00:49:08;;;;;;;13.50;7.27;;;;;;;15.56;68.10;101569.34;4946608;28;20204;-74
2023/10/01 00:52:32;;;;;;;13.87;6.80;;;;;;;15.60;68.13;101565.38;4949174;28;20524;-74
2023/10/01 00:55:18;;;;;;;13.07;6.37;;;;;;;15.60;67.77;101560.00;4931649;28;20560;-73
2023/10/01 00:58:10;;;;;;;13.23;6.10;;;;;;;15.58;67.57;101564.66;4950177;28;20243;-74
2023/10/01 01:00:38;;;;;;;15.57;7.00;;;;;;;15.56;67.80;101551.47;4946024;29;20199;-79
2023/10/01 01:03:09;;;;;;;13.50;6.90;;;;;;;15.57;67.58;101549.66;4946657;28;20235;-74
2023/10/01 01:05:49;;;;;;;13.97;6.83;;;;;;;15.60;67.41;101557.34;4953178;28;20207;-75
2023/10/01 01:08:33;;;;;;;13.77;6.83;;;;;;;15.57;67.47;101555.00;4949100;29;20322;-74
2023/10/01 01:11:03;;;;;;;14.50;6.80;;;;;;;15.55;67.63;101554.31;4951719;28;20203;-76
2023/10/01 01:13:33;;;;;;;13.70;6.83;;;;;;;15.50;67.33;101546.69;4949271;28;20218;-76
2023/10/01 01:16:06;;;;;;;13.90;6.70;;;;;;;15.48;67.30;101553.22;4952072;28;20220;-73
2023/10/01 01:18:36;;;;;;;15.80;6.90;;;;;;;15.47;67.40;101551.53;4947135;28;20223;-74
2023/10/01 01:21:10;;;;;;;12.30;6.63;;;;;;;15.46;67.61;101555.19;4948742;29;20196;-73
2023/10/01 01:23:41;;;;;;;16.13;7.07;;;;;;;15.39;67.86;101550.44;4958708;28;20227;-74
2023/10/01 01:26:13;;;;;;;12.33;6.53;;;;;;;15.33;67.65;101544.88;4949056;28;20680;-75
2023/10/01 01:29:16;;;;;;;13.20;6.77;;;;;;;15.26;68.58;101541.97;4905224;28;20216;-74
2023/10/01 01:32:06;;;;;;;13.73;6.87;;;;;;;15.22;68.95;101532.56;4941563;28;20216;-73
2023/10/01 01:34:37;;;;;;;14.63;6.63;;;;;;;15.25;68.80;101537.63;4949757;29;20199;-73
2023/10/01 01:37:07;;;;;;;12.30;6.30;;;;;;;15.26;68.68;101536.63;4948242;29;20199;-73
2023/10/01 01:40:29;;;;;;;15.17;6.17;;;;;;;15.28;68.70;101528.47;4913835;29;20204;-73
2023/10/01 01:43:04;;;;;;;17.23;6.30;;;;;;;15.26;68.71;101531.28;4913871;29;20552;-74
2023/10/01 01:45:38;;;;;;;18.27;6.77;;;;;;;15.24;68.90;101533.28;4914817;29;20207;-73
2023/10/01 01:48:21;;;;;;;15.93;6.70;;;;;;;15.24;68.69;101522.59;4918016;29;20208;-74
2023/10/01 01:50:57;;;;;;;14.43;7.67;;;;;;;15.32;68.34;101519.13;4915866;29;20209;-73
2023/10/01 01:53:34;;;;;;;11.10;6.53;;;;;;;15.31;68.50;101522.81;4916395;29;20259;-74
2023/10/01 01:56:10;;;;;;;17.27;7.53;;;;;;;15.31;68.60;101520.97;4915445;29;20577;-74
2023/10/01 01:58:44;;;;;;;15.63;7.30;;;;;;;15.30;68.58;101510.47;4941224;28;20614;-73
2023/10/01 02:01:23;;;;;;;13.43;7.00;;;;;;;15.24;68.83;101517.22;4950199;28;20680;-74
2023/10/01 02:03:57;;;;;;;13.37;7.70;;;;;;;15.25;68.73;101528.75;4952447;28;20703;-73
2023/10/01 02:07:11;;;;;;;16.33;6.93;;;;;;;15.25;68.63;101524.25;4950008;28;20211;-75
2023/10/01 02:09:49;;;;;;;13.53;6.93;;;;;;;15.23;68.62;101520.91;4945478;28;20211;-73
2023/10/01 02:12:35;;;;;;;;;;;;;;;;;;;;;
2023/10/01 02:15:21;;;;;;;15.80;7.53;;;;;;;15.23;68.17;101512.03;4949783;28;20211;-74
2023/10/01 02:17:50;;;;;;;12.70;6.67;;;;;;;15.16;68.87;101519.84;4949893;28;20203;-74
2023/10/01 02:20:27;;;;;;;12.23;6.60;;;;;;;15.15;68.73;101512.81;4950388;28;20294;-75
2023/10/01 02:22:58;;;;;;;15.27;6.87;;;;;;;15.11;68.95;101514.13;4959546;28;20592;-73
2023/10/01 02:25:37;;;;;;;16.53;7.33;;;;;;;15.06;69.25;101519.06;4949950;28;20333;-76
2023/10/01 02:28:38;;;;;;;12.33;6.60;;;;;;;15.04;69.53;101523.72;4952598;28;20283;-74
2023/10/01 02:31:08;;;;;;;12.50;6.20;;;;;;;15.03;68.95;101516.72;4944443;28;20674;-77
2023/10/01 02:36:23;;;;;;;13.93;6.93;;;;;;;14.93;69.09;101505.25;4952177;28;20215;-74
2023/10/01 02:38:56;;;;;;;16.57;6.77;;;;;;;14.89;69.45;101501.19;4948381;28;20572;-74
2023/10/01 02:41:26;;;;;;;14.10;6.80;;;;;;;14.88;69.11;101510.19;4953140;28;20200;-73
2023/10/01 02:48:12;;;;;;;20.93;7.57;;;;;;;14.91;68.99;101504.56;4947271;29;20207;-73
2023/10/01 02:50:54;;;;;;;14.03;7.43;;;;;;;14.96;68.57;101512.94;4941911;28;20295;-73
2023/10/01 02:53:25;;;;;;;14.93;7.17;;;;;;;14.94;68.53;101515.78;4954382;28;20211;-74
2023/10/01 02:56:07;;;;;;;16.90;7.17;;;;;;;14.90;68.72;101511.72;4948344;28;20211;-75
2023/10/01 02:58:50;;;;;;;14.33;6.33;;;;;;;14.89;68.55;101511.88;4947479;28;20590;-74
2023/10/01 03:01:21;;;;;;;13.63;6.80;;;;;;;14.88;68.81;101507.53;4948797;28;20208;-73
2023/10/01 03:03:50;;;;;;;13.63;7.37;;;;;;;14.76;68.86;101495.41;4946429;28;20305;-74
2023/10/01 03:06:19;;;;;;;14.97;6.70;;;;;;;14.56;69.99;101495.50;4953426;28;20208;-73
2023/10/01 03:09:22;;;;;;;18.37;7.57;;;;;;;14.59;70.29;101489.88;4949393;28;20525;-74
2023/10/01 03:15:00;;;;;;;12.73;6.43;;;;;;;14.50;70.69;101477.44;4950848;28;20208;-73
2023/10/01 03:17:38;;;;;;;15.80;6.83;;;;;;;14.50;70.90;101480.09;4953095;28;20558;-73
2023/10/01 03:20:19;;;;;;;16.27;7.13;;;;;;;14.50;71.03;101474.75;4941684;28;20196;-73
2023/10/01 03:22:52;;;;;;;18.33;6.80;;;;;;;14.45;71.04;101469.00;4955191;28;20207;-73
2023/10/01 03:25:27;;;;;;;14.17;7.20;;;;;;;14.51;71.06;101470.25;4953178;28;20238;-74
2023/10/01 03:27:59;;;;;;;13.03;6.60;;;;;;;14.60;70.80;101475.50;4947261;28;20203;-73
2023/10/01 03:30:32;;;;;;;18.10;7.37;;;;;;;14.61;70.37;101471.00;4948624;28;20335;-73
2023/10/01 03:33:08;;;;;;;14.67;6.67;;;;;;;14.65;70.23;101467.06;4943075;28;20211;-73
2023/10/01 03:35:42;;;;;;;11.60;5.80;;;;;;;14.62;70.01;101478.88;4947138;28;20294;-73
2023/10/01 03:39:08;;;;;;;13.80;6.63;;;;;;;14.66;69.86;101490.97;4926490;29;20214;-73
2023/10/01 03:41:54;;;;;;;13.50;6.40;;;;;;;14.65;69.23;101489.28;4946224;28;20228;-73
2023/10/01 03:45:25;;;;;;;14.90;7.10;;;;;;;14.57;69.06;101486.50;4941378;28;20242;-75
2023/10/01 03:47:58;;;;;;;15.87;6.97;;;;;;;14.58;69.18;101493.53;4950234;28;20192;-73
2023/10/01 03:50:31;;;;;;;16.03;6.87;;;;;;;14.54;69.31;101486.81;4948258;28;20535;-74
2023/10/01 03:53:10;;;;;;;16.13;6.87;;;;;;;14.54;69.01;101496.63;4948900;28;20207;-73
2023/10/01 03:56:13;;;;;;;14.70;5.90;;;;;;;14.57;68.90;101493.69;4903787;29;20949;-73
2023/10/01 03:59:41;;;;;;;14.70;6.87;;;;;;;14.55;69.14;101496.50;4950368;29;20637;-73
2023/10/01 04:02:46;;;;;;;12.23;5.93;;;;;;;14.48;69.14;101491.91;4893810;29;20217;-73
2023/10/01 04:05:30;;;;;;;16.60;6.83;;;;;;;14.43;69.03;101497.66;4943676;28;20235;-73
2023/10/01 04:08:07;;;;;;;12.40;6.20;;;;;;;14.41;69.33;101502.34;4946923;28;20233;-73
2023/10/01 04:10:38;;;;;;;12.63;6.20;;;;;;;14.41;69.20;101502.34;4945350;29;20302;-73
2023/10/01 04:13:23;;;;;;;11.10;5.50;;;;;;;14.43;69.50;101504.81;4949834;28;20210;-73
2023/10/01 04:16:08;;;;;;;11.37;5.97;;;;;;;14.42;69.42;101512.03;4942927;28;20235;-75
2023/10/01 04:18:42;;;;;;;12.80;6.27;;;;;;;14.47;69.48;101507.06;4953408;28;20212;-73
2023/10/01 04:21:24;;;;;;;17.50;7.03;;;;;;;14.46;69.10;101504.53;4955506;28;20199;-73
2023/10/01 04:23:55;;;;;;;14.27;6.33;;;;;;;14.27;69.84;101503.63;4946955;28;20226;-73
2023/10/01 04:26:25;;;;;;;15.87;6.93;;;;;;;14.00;70.86;101508.06;4951384;28;20203;-75
2023/10/01 04:28:59;;;;;;;15.80;6.77;;;;;;;14.02;71.17;101506.09;4951071;28;20212;-73
2023/10/01 04:31:48;;;;;;;16.30;6.93;;;;;;;14.15;70.65;101501.28;4955163;28;20210;-73
2023/10/01 04:34:23;;;;;;;13.50;6.37;;;;;;;14.14;71.36;101497.78;4943151;28;20243;-74
2023/10/01 04:37:37;;;;;;;16.83;7.03;;;;;;;14.10;71.64;101498.22;4947137;29;20600;-76
2023/10/01 04:43:16;;;;;;;15.20;7.00;;;;;;;14.28;70.87;101496.44;5003780;23;20244;-73
2023/10/01 04:45:45;;;;;;;16.90;7.10;;;;;;;14.31;71.17;101502.34;5026979;28;20270;-73
2023/10/01 04:48:16;;;;;;;12.70;6.93;;;;;;;14.36;71.24;101496.56;5015713;28;20523;-74
2023/10/01 04:50:49;;;;;;;16.47;7.50;;;;;;;14.37;71.12;101506.25;5030643;28;20198;-73
2023/10/01 04:53:21;;;;;;;16.17;7.40;;;;;;;14.37;70.83;101505.41;5034242;28;20209;-73
2023/10/01 04:56:00;;;;;;;15.97;7.27;;;;;;;14.36;70.63;101512.56;5022917;28;20228;-75
2023/10/01 04:58:36;;;;;;;16.93;7.10;;;;;;;14.34;70.79;101513.72;5028489;28;20201;-73
2023/10/01 05:01:11;;;;;;;14.37;6.80;;;;;;;14.31;70.46;101518.34;5042820;28;20204;-73
2023/10/01 05:03:48;;;;;;;12.63;6.37;;;;;;;14.33;70.31;101518.22;5040515;28;20200;-73
2023/10/01 05:06:19;;;;;;;13.83;6.63;;;;;;;14.29;70.12;101527.47;5042691;28;20219;-72
2023/10/01 05:08:59;;;;;;;18.17;7.40;;;;;;;14.28;70.19;101529.31;5014766;28;20211;-73
2023/10/01 05:11:32;;;;;;;15.30;6.77;;;;;;;14.31;70.09;101526.34;5036716;28;20193;-74
2023/10/01 05:14:04;;;;;;;16.60;7.27;;;;;;;14.32;69.99;101535.19;5033327;28;20685;-74
2023/10/01 05:16:38;;;;;;;16.97;7.77;;;;;;;14.27;70.29;101534.78;5021247;28;20651;-73
2023/10/01 05:19:13;;;;;;;19.00;7.40;;;;;;;14.24;70.48;101543.94;5023450;28;20278;-75
2023/10/01 05:21:49;;;;;;;10.43;5.53;;;;;;;14.25;70.25;101544.75;5008854;28;20201;-74
2023/10/01 05:27:28;;;;;;;13.43;6.20;;;;;;;14.25;70.26;101550.94;5027714;28;20554;-74
2023/10/01 05:29:57;;;;;;;14.50;6.97;;;;;;;14.24;69.98;101545.78;5023870;28;20317;-73
2023/10/01 05:32:27;;;;;;;16.50;7.07;;;;;;;14.23;69.66;101552.09;5026391;28;20299;-74
2023/10/01 05:35:14;;;;;;;13.07;6.70;;;;;;;14.10;70.14;101551.56;5024765;28;20289;-75
2023/10/01 05:38:04;;;;;;;12.43;6.93;;;;;;;14.09;70.51;101560.53;5023414;28;20206;-74
2023/10/01 05:43:23;;;;;;;16.37;7.60;;;;;;;14.14;70.67;101561.81;5005474;28;20244;-73
2023/10/01 05:46:17;;;;;;;15.10;7.80;;;;;;;14.07;71.20;101552.66;5009909;28;20280;-74
2023/10/01 05:49:00;;;;;;;11.20;6.70;;;;;;;14.11;70.97;101554.06;5005511;28;20235;-73
2023/10/01 05:56:05;;;;;;;14.03;7.30;;;;;;;14.06;71.39;101560.84;4931275;28;20662;-73
2023/10/01 05:58:36;;;;;;;13.97;6.90;;;;;;;13.98;72.15;101558.91;4969265;28;20201;-74
2023/10/01 06:01:13;;;;;;;15.63;6.93;;;;;;;14.01;72.35;101566.59;5001118;28;20292;-73
2023/10/01 06:03:48;;;;;;;20.93;7.20;;;;;;;14.09;72.49;101572.03;5003755;28;20580;-73
2023/10/01 06:06:36;;;;;;;20.30;7.67;;;;;;;14.14;72.23;101575.13;5023532;23;20369;-75
2023/10/01 06:09:09;;;;;;;18.43;6.70;;;;;;;14.17;72.07;101584.66;5013760;28;20533;-77
2023/10/01 06:11:41;;;;;;;13.33;6.10;;;;;;;14.28;71.82;101581.81;5014333;28;20194;-77
2023/10/01 06:14:29;;;;;;;16.20;6.93;;;;;;;14.30;71.56;101585.19;5018647;28;20201;-77
2023/10/01 06:17:00;;;;;;;16.73;7.00;;;;;;;14.34;71.43;101588.44;5014651;28;20293;-77
2023/10/01 06:19:28;;;;;;;16.17;7.63;;;;;;;14.35;71.27;101579.41;5014372;28;20219;-77
2023/10/01 06:22:12;;;;;;;14.30;7.30;;;;;;;14.35;71.44;101577.59;5013907;28;20651;-75
2023/10/01 06:24:42;;;;;;;16.03;7.13;;;;;;;14.39;71.37;101588.84;5013291;28;20223;-77
2023/10/01 06:27:12;;;;;;;14.57;7.30;;;;;;;14.40;71.46;101577.19;5014123;28;20203;-76
2023/10/01 06:29:49;;;;;;;16.03;7.30;;;;;;;14.46;71.32;101579.28;5013945;28;20205;-76
2023/10/01 06:32:21;;;;;;;15.60;7.27;;;;;;;14.48;71.97;101575.47;5014179;28;20208;-77
2023/10/01 06:34:51;;;;;;;18.70;7.50;;;;;;;14.53;72.27;101580.34;5014135;28;20288;-77
2023/10/01 06:37:20;;;;;;;13.97;7.20;;;;;;;14.58;72.58;101592.28;5013678;28;20296;-77
2023/10/01 06:39:47;;;;;;;13.77;7.37;;;;;;;14.63;72.52;101589.16;5013297;28;20239;-77
2023/10/01 06:42:23;;;;;;;15.33;7.67;;;;;;;14.65;72.46;101577.38;4978665;28;20257;-76
2023/10/01 06:44:55;;;;;;;15.10;8.17;;;;;;;14.69;72.77;101586.75;4980713;28;20570;-76
2023/10/01 06:47:26;;;;;;;16.77;8.87;;;;;;;14.71;72.99;101586.59;4977377;28;20229;-76
2023/10/01 06:50:07;;;;;;;16.07;8.70;;;;;;;14.65;73.30;101582.72;4977971;28;20940;-76
2023/10/01 06:52:41;;;;;;;14.03;7.93;;;;;;;14.55;74.60;101587.25;4977080;28;20716;-79
2023/10/01 06:55:25;;;;;;;14.80;7.80;;;;;;;14.43;75.29;101583.06;4975407;28;20648;-76
2023/10/01 06:57:55;;;;;;;16.00;8.93;;;;;;;14.33;76.57;101590.25;4977179;28;20216;-76
2023/10/01 07:00:24;;;;;;;18.23;8.97;;;;;;;14.30;77.14;101590.53;4977512;28;20225;-77
2023/10/01 07:02:53;;;;;;;14.70;8.57;;;;;;;14.35;77.18;101592.75;4976575;28;20972;-76
2023/10/01 07:05:22;;;;;;;16.83;8.83;;;;;;;14.37;77.18;101599.63;4977455;28;20318;-77
2023/10/01 07:07:50;;;;;;;15.57;8.53;;;;;;;14.50;76.14;101600.19;4977232;28;20198;-76
2023/10/01 07:10:19;;;;;;;18.13;8.90;;;;;;;14.61;75.40;101597.31;4974875;28;20214;-76
2023/10/01 07:13:04;;;;;;;23.03;9.70;;;;;;;14.69;75.82;101597.44;4977136;28;20210;-76
2023/10/01 07:15:39;;;;;;;19.13;9.07;;;;;;;14.64;76.04;101594.38;4974403;28;20337;-77
2023/10/01 07:18:15;;;;;;;18.87;9.07;;;;;;;14.63;76.33;101590.00;4976631;28;20198;-75
2023/10/01 07:20:45;;;;;;;21.80;9.23;;;;;;;14.69;76.40;101586.75;4975926;28;20210;-76
2023/10/01 07:23:14;;;;;;;16.53;9.03;;;;;;;14.71;76.67;101596.44;4976108;28;20288;-77
2023/10/01 07:25:43;;;;;;;17.23;9.70;;;;;;;14.80;76.54;101592.88;4978024;28;20324;-77
2023/10/01 07:28:13;;;;;;;18.80;9.37;;;;;;;14.96;74.97;101593.06;4976345;28;20203;-76
2023/10/01 07:30:46;;;;;;;15.77;9.60;;;;;;;15.14;75.06;101591.28;4974726;28;20213;-75
2023/10/01 07:33:17;;;;;;;21.10;10.87;;;;;;;15.24;73.62;101594.72;4979361;28;20195;-76
2023/10/01 07:35:58;;;;;;;20.20;10.70;;;;;;;15.38;73.55;101586.22;4975455;28;20250;-76
2023/10/01 07:38:28;;;;;;;26.17;12.47;;;;;;;15.45;73.74;101591.78;4974177;28;20262;-76
2023/10/01 07:40:58;;;;;;;25.63;12.80;;;;;;;15.48;73.93;101588.78;4977292;28;20529;-75
2023/10/01 07:43:26;;;;;;;25.67;13.30;;;;;;;15.46;73.37;101596.13;4976079;28;20229;-77
2023/10/01 07:45:59;;;;;;;24.87;13.67;;;;;;;15.49;73.76;101592.28;4976420;28;20269;-76
2023/10/01 07:48:28;;;;;;;21.73;12.73;;;;;;;15.59;74.43;101596.59;4978061;28;20210;-76
2023/10/01 07:50:56;;;;;;;25.17;13.70;;;;;;;15.64;73.75;101588.97;4976608;28;20278;-77
2023/10/01 07:53:32;;;;;;;22.63;13.40;;;;;;;15.71;72.76;101598.06;4975312;28;20289;-75
2023/10/01 07:56:01;;;;;;;25.93;13.30;;;;;;;15.80;73.39;101591.78;4975996;28;20222;-75
2023/10/01 08:03:58;;;;;;;22.43;11.93;;;;;;;16.07;71.55;101590.81;4977073;28;20214;-76
2023/10/01 08:06:30;;;;;;;22.37;11.87;;;;;;;16.38;71.76;101587.66;4976846;28;20276;-78
2023/10/01 08:08:59;;;;;;;22.33;11.70;;;;;;;16.66;70.12;101593.69;4976827;28;20348;-75
2023/10/01 08:14:21;;;;;;;23.53;13.07;;;;;;;16.67;69.99;101601.56;4976271;28;20640;-77
2023/10/01 08:16:50;;;;;;;24.83;12.47;;;;;;;16.55;70.55;101603.66;4974378;28;20325;-77
2023/10/01 08:19:20;;;;;;;25.77;12.00;;;;;;;16.65;70.61;101600.88;4975172;28;20656;-78
2023/10/01 08:21:51;;;;;;;19.97;11.93;;;;;;;16.61;70.28;101596.00;4977269;28;20197;-76
2023/10/01 08:24:19;;;;;;;22.53;11.67;;;;;;;16.65;70.76;101600.88;4978576;28;20221;-77
2023/10/01 08:26:57;;;;;;;19.97;12.03;;;;;;;16.63;71.02;101602.88;4979956;28;20301;-76
2023/10/01 08:29:28;;;;;;;21.53;11.80;;;;;;;16.56;71.56;101607.16;4980390;28;20222;-75
2023/10/01 08:32:09;;;;;;;23.10;11.57;;;;;;;16.68;70.49;101600.56;4979720;28;20724;-76
2023/10/01 08:37:37;;;;;;;19.60;10.83;;;;;;;17.91;66.99;101605.22;4925924;29;20506;-76
2023/10/01 08:40:13;;;;;;;18.60;10.33;;;;;;;18.24;64.53;101598.78;4967239;28;20207;-77
2023/10/01 08:42:44;;;;;;;17.67;10.57;;;;;;;18.82;63.40;101589.59;4977800;28;20244;-76
2023/10/01 08:45:12;;;;;;;20.87;11.30;;;;;;;19.23;61.42;101589.38;4979210;28;20213;-77
2023/10/01 08:47:45;;;;;;;22.17;10.80;;;;;;;19.15;61.41;101585.72;4979605;28;20215;-78
2023/10/01 08:50:28;;;;;;;18.57;11.03;;;;;;;20.67;58.00;101583.69;4978311;28;20556;-77
2023/10/01 08:52:58;;;;;;;16.60;9.87;;;;;;;24.94;46.26;101572.41;4979064;28;20212;-78
2023/10/01 08:55:35;;;;;;;16.50;9.90;;;;;;;28.11;40.34;101566.13;4978355;28;20206;-76
2023/10/01 08:58:15;;;;;;;16.67;8.27;;;;;;;32.18;32.57;101561.91;4977252;28;20261;-76
2023/10/01 09:00:48;;;;;;;14.75;9.45;;;;;;;33.99;29.82;101565.34;4977744;28;20637;-76
2023/10/01 09:03:28;;;;;;;15.00;8.30;;;;;;;32.58;31.09;101560.44;4979999;28;20234;-77
2023/10/01 09:06:04;;;;;;;13.13;8.25;;;;;;;31.92;31.79;101569.09;4980625;28;20631;-74
2023/10/01 09:08:42;;;;;;;15.55;9.63;;;;;;;31.42;32.75;101569.47;4978133;28;20210;-77
2023/10/01 09:11:13;;;;;;;14.20;8.55;;;;;;;30.23;33.66;101570.25;4979702;28;20214;-77
2023/10/01 09:13:51;;;;;;;14.43;8.52;;;;;;;28.54;37.03;101568.50;4978818;28;20657;-77
2023/10/01 09:16:30;;;;;;;16.55;9.23;;;;;;;26.97;39.71;101568.13;4978887;28;20225;-77
2023/10/01 09:19:05;;;;;;;11.80;8.50;;;;;;;26.20;41.46;101564.19;4978547;28;20692;-77
2023/10/01 09:21:38;;;;;;;12.23;8.70;;;;;;;27.28;39.79;101564.31;4976582;28;20220;-77
2023/10/01 09:24:34;;;;;;;17.98;9.40;;;;;;;27.70;38.58;101568.75;4977617;28;20206;-78
2023/10/01 09:27:09;;;;;;;15.77;10.32;;;;;;;29.61;36.06;101568.69;4976804;28;20206;-75
2023/10/01 09:29:43;;;;;;;13.98;8.82;;;;;;;33.00;31.06;101561.13;4978497;28;20250;-76
2023/10/01 09:32:13;;;;;;;17.77;9.13;;;;;;;34.69;28.38;101563.50;4981894;28;20556;-76
2023/10/01 09:34:53;;;;;;;15.57;9.00;;;;;;;34.68;28.17;101562.66;4980972;28;20810;-75
2023/10/01 09:37:33;;;;;;;14.90;8.60;;;;;;;33.64;29.50;101568.94;4976494;28;20259;-76
2023/10/01 09:40:12;;;;;;;13.70;8.82;;;;;;;32.69;30.91;101567.63;4978719;28;20206;-75
2023/10/01 09:42:45;;;;;;;14.73;8.90;;;;;;;33.85;29.51;101554.09;4977428;28;20264;-77
2023/10/01 09:45:26;;;;;;;17.65;8.88;;;;;;;32.55;31.29;101547.22;4978695;28;20297;-76
2023/10/01 09:48:04;;;;;;;15.13;9.00;;;;;;;29.90;34.55;101553.84;4979016;28;20229;-77
2023/10/01 09:50:41;;;;;;;12.38;8.23;;;;;;;27.65;38.34;101554.16;4981767;28;20206;-77
2023/10/01 09:53:13;;;;;;;14.40;10.00;;;;;;;25.85;42.14;101548.41;4977305;28;20210;-78
2023/10/01 09:55:47;;;;;;;15.27;9.07;;;;;;;24.55;45.39;101550.81;4981030;28;20215;-76
2023/10/01 09:58:24;;;;;;;15.65;9.68;;;;;;;23.69;47.34;101550.09;4981996;28;20701;-77
2023/10/01 10:00:53;;;;;;;18.42;9.93;;;;;;;23.06;49.26;101566.63;4979720;28;20656;-76
2023/10/01 10:03:21;;;;;;;17.67;10.18;;;;;;;22.48;50.90;101558.06;4975823;28;20228;-76
2023/10/01 10:05:52;;;;;;;16.58;9.73;;;;;;;22.07;52.91;101554.47;4978134;28;20214;-76
2023/10/01 10:08:26;;;;;;;14.43;8.35;;;;;;;21.80;53.84;101550.72;4979192;28;20225;-76
2023/10/01 10:10:56;;;;;;;17.65;10.45;;;;;;;21.70;53.71;101547.50;4977648;28;20206;-77
2023/10/01 10:13:36;;;;;;;16.33;10.15;;;;;;;21.46;54.41;101545.22;4979743;28;20771;-76
2023/10/01 10:16:29;;;;;;;17.60;9.57;;;;;;;22.33;53.39;101546.53;4978169;28;20212;-79
2023/10/01 10:19:04;;;;;;;17.70;9.05;;;;;;;24.38;47.98;101539.59;4976366;28;20202;-76
2023/10/01 10:22:16;;;;;;;15.02;8.02;;;;;;;24.63;46.89;101527.00;4980232;28;20202;-76
2023/10/01 10:24:46;;;;;;;16.95;8.73;;;;;;;24.20;47.85;101531.28;4979186;28;20207;-77
2023/10/01 10:27:47;;;;;;;14.95;8.90;;;;;;;23.56;49.07;101530.13;4979171;28;20280;-79
2023/10/01 10:30:15;;;;;;;18.05;8.85;;;;;;;22.91;50.86;101529.97;4977346;28;20234;-76
2023/10/01 10:33:39;;;;;;;15.73;8.63;;;;;;;22.43;52.61;101536.19;4978991;28;20533;-77
2023/10/01 10:36:54;;;;;;;13.95;8.27;;;;;;;22.13;53.10;101527.50;4976389;28;20210;-78
2023/10/01 10:40:22;;;;;;;15.60;8.07;;;;;;;21.94;53.92;101521.94;4978707;28;20197;-76
2023/10/01 10:43:19;;;;;;;16.80;8.00;;;;;;;22.43;53.55;101521.81;4977579;28;20630;-75
2023/10/01 10:46:09;;;;;;;18.00;8.23;;;;;;;22.84;52.07;101525.38;4981091;28;20206;-77
2023/10/01 10:48:59;;;;;;;13.60;7.28;;;;;;;22.74;52.50;101524.94;4979915;28;20237;-76
2023/10/01 10:51:46;;;;;;;15.32;8.20;;;;;;;22.69;51.79;101519.22;4978840;28;20285;-77
2023/10/01 10:54:31;;;;;;;13.13;7.50;;;;;;;22.60;52.32;101528.59;4976985;28;20258;-77
2023/10/01 10:56:59;;;;;;;17.45;8.00;;;;;;;22.63;52.58;101511.94;4978457;28;20280;-77
2023/10/01 10:59:32;;;;;;;17.55;7.63;;;;;;;22.80;51.34;101515.16;4976510;28;20222;-75
2023/10/01 11:01:59;;;;;;;17.15;8.32;;;;;;;22.97;51.59;101513.75;4976675;28;20210;-76
2023/10/01 11:04:31;;;;;;;13.88;7.80;;;;;;;23.41;50.23;101504.25;4977807;28;20246;-75
2023/10/01 11:07:02;;;;;;;15.48;7.85;;;;;;;23.59;49.18;101496.38;4976670;28;20640;-77
2023/10/01 11:09:32;;;;;;;13.55;6.97;;;;;;;23.74;48.60;101498.88;4977937;28;20198;-76
2023/10/01 11:12:07;;;;;;;13.68;6.97;;;;;;;24.85;46.56;101508.53;4976667;28;21155;-77
2023/10/01 11:14:37;;;;;;;17.35;7.35;;;;;;;27.75;40.34;101489.00;4976353;28;20267;-75
2023/10/01 11:17:06;;;;;;;15.20;7.00;;;;;;;27.72;39.82;101486.72;4973776;28;20210;-77
2023/10/01 11:19:36;;;;;;;12.50;7.30;;;;;;;27.88;39.25;101496.91;4976752;28;20735;-77
2023/10/01 11:22:06;;;;;;;12.43;7.45;;;;;;;29.06;37.13;101484.66;4975570;28;20214;-74
2023/10/01 11:24:36;;;;;;;11.27;6.57;;;;;;;28.42;37.98;101495.69;4976216;28;20657;-77
2023/10/01 11:27:19;;;;;;;15.50;7.43;;;;;;;27.53;39.72;101487.91;4975629;28;20708;-75
2023/10/01 11:30:13;;;;;;;12.35;7.20;;;;;;;27.17;39.61;101487.00;4976729;28;20229;-77
2023/10/01 11:33:01;;;;;;;16.77;7.28;;;;;;;26.83;40.05;101482.22;4977388;28;20695;-76
2023/10/01 11:35:32;;;;;;;12.50;7.22;;;;;;;26.87;40.61;101487.00;4976367;28;20225;-76
2023/10/01 11:38:09;;;;;;;14.10;7.47;;;;;;;26.88;40.90;101477.78;4976745;28;20306;-76
2023/10/01 11:43:32;;;;;;;15.55;7.68;;;;;;;25.87;41.77;101474.81;4977471;28;20317;-77
2023/10/01 11:46:20;;;;;;;13.90;7.90;;;;;;;25.14;43.66;101468.34;4974327;28;20330;-77
2023/10/01 11:49:06;;;;;;;15.35;7.68;;;;;;;24.77;45.25;101461.84;4973002;28;20313;-75
2023/10/01 11:51:50;;;;;;;14.43;7.88;;;;;;;24.67;44.96;101462.31;4975780;28;20670;-77
2023/10/01 11:54:20;;;;;;;16.48;8.18;;;;;;;24.48;45.41;101458.66;4975833;28;20242;-76
2023/10/01 11:57:04;;;;;;;14.52;7.10;;;;;;;24.65;44.74;101462.53;4976299;28;20551;-76
2023/10/01 11:59:35;;;;;;;11.80;6.53;;;;;;;24.44;45.40;101453.91;4973811;28;20210;-77
2023/10/01 12:02:20;;;;;;;13.52;7.15;;;;;;;24.21;45.66;101441.69;4975545;28;20249;-76
2023/10/01 12:04:56;;;;;;;14.35;7.90;;;;;;;24.14;46.30;101443.56;4977218;28;20276;-76
2023/10/01 12:07:32;;;;;;;13.52;8.02;;;;;;;24.12;46.46;101440.22;4974817;28;20234;-77
2023/10/01 12:10:04;;;;;;;13.48;7.85;;;;;;;24.19;45.97;101438.31;4972356;28;20209;-78
2023/10/01 12:12:36;;;;;;;12.20;7.00;;;;;;;24.31;45.93;101439.34;4975596;28;20692;-77
2023/10/01 12:17:48;;;;;;;14.13;7.55;;;;;;;23.76;46.76;101437.19;4973845;28;20389;-78
2023/10/01 12:20:22;;;;;;;15.57;7.97;;;;;;;23.52;47.54;101431.41;4976553;28;20206;-76
2023/10/01 12:23:04;;;;;;;13.73;7.15;;;;;;;23.34;48.36;101428.47;4974063;28;20198;-76
2023/10/01 12:25:42;;;;;;;12.73;7.05;;;;;;;23.25;48.78;101424.31;4976103;28;20214;-75
2023/10/01 12:28:15;;;;;;;18.85;8.00;;;;;;;23.25;48.48;101418.88;4972569;28;20303;-77
2023/10/01 12:30:42;;;;;;;14.30;7.25;;;;;;;23.49;47.94;101423.69;4977538;28;20697;-74
2023/10/01 12:33:11;;;;;;;13.00;7.88;;;;;;;23.70;47.24;101422.63;4975343;28;20210;-76
2023/10/01 12:35:39;;;;;;;14.60;7.70;;;;;;;23.79;46.97;101417.81;4978521;28;20748;-78
2023/10/01 12:38:22;;;;;;;14.18;7.70;;;;;;;23.75;47.02;101411.19;4977598;28;20618;-76
2023/10/01 12:40:55;;;;;;;14.52;7.57;;;;;;;23.60;47.24;101411.38;4976342;28;20207;-77
2023/10/01 12:43:39;;;;;;;17.70;8.70;;;;;;;23.40;48.22;101405.13;4976885;28;20304;-76
2023/10/01 12:46:09;;;;;;;13.98;7.80;;;;;;;23.29;48.33;101406.63;4977401;28;20596;-78